createdAt,value
2023-03-07T00:01:38.707Z,11.13
2023-03-07T00:04:05.571Z,11.23
2023-03-07T00:06:32.262Z,10.30
2023-03-07T00:09:00.338Z,10.90
2023-03-07T00:11:27.185Z,12.03
2023-03-07T00:13:53.677Z,10.70
2023-03-07T00:16:22.063Z,9.70
2023-03-07T00:18:48.672Z,9.20
2023-03-07T00:21:17.295Z,9.37
2023-03-07T00:23:44.524Z,9.10
2023-03-07T00:26:12.923Z,8.70
2023-03-07T00:28:39.149Z,8.30
2023-03-07T00:31:07.112Z,8.87
2023-03-07T00:33:33.591Z,8.77
2023-03-07T00:36:01.347Z,9.23
2023-03-07T00:38:29.446Z,8.63
2023-03-07T00:40:57.738Z,8.30
2023-03-07T00:43:24.233Z,8.60
2023-03-07T00:45:50.541Z,8.67
2023-03-07T00:48:17.576Z,8.53
2023-03-07T00:50:43.779Z,8.60
2023-03-07T00:53:09.960Z,8.30
2023-03-07T00:55:36.730Z,8.50
2023-03-07T00:58:03.018Z,8.50
2023-03-07T01:00:29.336Z,8.30
2023-03-07T01:02:57.396Z,9.17
2023-03-07T01:05:23.678Z,8.13
2023-03-07T01:07:49.904Z,8.53
2023-03-07T01:10:16.336Z,8.23
2023-03-07T01:12:43.270Z,8.13
2023-03-07T01:15:10.551Z,8.37
2023-03-07T01:17:36.734Z,8.83
2023-03-07T01:20:06.301Z,8.10
2023-03-07T01:22:32.667Z,7.93
2023-03-07T01:24:59.075Z,8.23
2023-03-07T01:27:25.317Z,8.27
2023-03-07T01:29:52.694Z,8.77
2023-03-07T01:32:19.035Z,7.40
2023-03-07T01:34:45.276Z,8.10
2023-03-07T01:37:11.402Z,7.87
2023-03-07T01:39:37.637Z,7.53
2023-03-07T01:42:04.421Z,7.43
2023-03-07T01:44:30.832Z,7.87
2023-03-07T01:46:59.276Z,7.67
2023-03-07T01:49:27.234Z,7.83
2023-03-07T01:51:57.782Z,7.17
2023-03-07T01:54:25.222Z,7.57
2023-03-07T01:56:51.686Z,8.00
2023-03-07T01:59:24.711Z,7.30
2023-03-07T02:01:51.565Z,7.00
2023-03-07T02:04:22.414Z,6.93
2023-03-07T02:06:48.919Z,6.40
2023-03-07T02:09:18.666Z,7.37
2023-03-07T02:11:45.940Z,6.77
2023-03-07T02:14:12.228Z,6.23
2023-03-07T02:16:38.791Z,7.00
2023-03-07T02:19:14.025Z,5.80
2023-03-07T02:21:44.225Z,5.70
2023-03-07T02:24:18.557Z,5.77
2023-03-07T02:26:46.654Z,5.50
2023-03-07T02:29:13.909Z,5.77
2023-03-07T02:31:40.810Z,5.70
2023-03-07T02:34:18.698Z,4.87
2023-03-07T02:36:45.069Z,4.87
2023-03-07T02:39:11.451Z,5.03
2023-03-07T02:41:38.002Z,5.40
2023-03-07T02:44:05.095Z,5.47
2023-03-07T02:46:31.341Z,5.87
2023-03-07T02:48:57.672Z,5.33
2023-03-07T02:51:23.918Z,5.07
2023-03-07T02:53:50.170Z,4.93
2023-03-07T02:56:16.385Z,5.07
2023-03-07T02:58:42.547Z,4.77
2023-03-07T03:01:10.247Z,5.13
2023-03-07T03:03:36.808Z,4.87
2023-03-07T03:06:03.149Z,5.40
2023-03-07T03:08:29.868Z,6.07
2023-03-07T03:10:56.058Z,6.27
2023-03-07T03:13:22.206Z,6.67
2023-03-07T03:15:48.599Z,6.50
2023-03-07T03:18:16.610Z,7.00
2023-03-07T03:20:42.887Z,7.83
2023-03-07T03:23:09.062Z,7.53
2023-03-07T03:25:35.637Z,7.97
2023-03-07T03:28:01.837Z,8.73
2023-03-07T03:30:31.545Z,8.10
2023-03-07T03:32:58.129Z,8.43
2023-03-07T03:35:24.971Z,9.23
2023-03-07T03:37:51.260Z,9.27
2023-03-07T03:40:17.756Z,9.33
2023-03-07T03:42:44.453Z,9.20
2023-03-07T03:45:11.415Z,8.90
2023-03-07T03:47:37.951Z,8.53
2023-03-07T03:50:04.849Z,8.40
2023-03-07T03:52:31.742Z,10.37
2023-03-07T03:54:58.121Z,9.03
2023-03-07T03:57:24.495Z,9.40
2023-03-07T03:59:50.930Z,9.90
2023-03-07T04:02:17.161Z,9.27
2023-03-07T04:04:43.528Z,9.10
2023-03-07T04:07:09.799Z,9.53
2023-03-07T04:09:36.783Z,9.37
2023-03-07T04:12:03.404Z,8.60
2023-03-07T04:14:29.697Z,8.93
2023-03-07T04:16:55.901Z,9.23
2023-03-07T04:19:22.273Z,9.57
2023-03-07T04:21:48.860Z,8.73
2023-03-07T04:24:15.068Z,8.70
2023-03-07T04:26:42.100Z,9.17
2023-03-07T04:29:14.993Z,9.50
2023-03-07T04:31:41.333Z,9.07
2023-03-07T04:34:07.548Z,8.93
2023-03-07T04:36:33.758Z,9.57
2023-03-07T04:38:59.934Z,9.17
2023-03-07T04:41:26.377Z,9.87
2023-03-07T04:43:53.202Z,10.40
2023-03-07T04:46:19.617Z,9.87
2023-03-07T04:48:46.633Z,9.50
2023-03-07T04:51:12.912Z,9.10
2023-03-07T04:53:39.142Z,8.57
2023-03-07T04:56:07.432Z,9.73
2023-03-07T04:58:34.135Z,9.03
2023-03-07T05:01:02.227Z,9.63
2023-03-07T05:03:28.672Z,9.53
2023-03-07T05:05:54.948Z,9.03
2023-03-07T05:08:21.651Z,9.50
2023-03-07T05:10:47.851Z,9.23
2023-03-07T05:13:14.167Z,9.47
2023-03-07T05:15:40.416Z,9.47
2023-03-07T05:18:07.234Z,10.27
2023-03-07T05:20:33.917Z,9.93
2023-03-07T05:23:00.103Z,10.17
2023-03-07T05:25:26.627Z,8.83
2023-03-07T05:27:52.954Z,9.03
2023-03-07T05:30:20.816Z,10.00
2023-03-07T05:32:47.627Z,9.47
2023-03-07T05:35:15.454Z,9.57
2023-03-07T05:37:41.743Z,9.60
2023-03-07T05:40:12.363Z,10.07
2023-03-07T05:42:38.582Z,10.03
2023-03-07T05:45:06.070Z,9.37
2023-03-07T05:47:32.394Z,10.07
2023-03-07T05:49:58.785Z,9.27
2023-03-07T05:52:25.787Z,9.53
2023-03-07T05:54:51.922Z,10.20
2023-03-07T05:57:18.051Z,9.67
2023-03-07T05:59:44.402Z,9.27
2023-03-07T06:02:10.730Z,9.80
2023-03-07T06:04:36.929Z,9.73
2023-03-07T06:07:03.095Z,9.03
2023-03-07T06:09:29.898Z,9.70
2023-03-07T06:11:56.119Z,9.27
2023-03-07T06:14:22.389Z,9.80
2023-03-07T06:16:48.662Z,10.43
2023-03-07T06:19:14.871Z,9.73
2023-03-07T06:21:42.064Z,9.97
2023-03-07T06:24:08.589Z,9.87
2023-03-07T06:26:35.448Z,9.97
2023-03-07T06:29:01.955Z,9.70
2023-03-07T06:31:28.233Z,10.43
2023-03-07T06:33:57.178Z,10.27
2023-03-07T06:36:23.916Z,10.37
2023-03-07T06:38:50.372Z,11.00
2023-03-07T06:41:16.774Z,11.27
2023-03-07T06:43:43.606Z,10.33
2023-03-07T06:46:10.009Z,11.47
2023-03-07T06:48:36.301Z,9.93
2023-03-07T06:51:06.358Z,11.60
2023-03-07T06:53:32.668Z,11.83
2023-03-07T06:55:58.823Z,11.20
2023-03-07T06:58:24.994Z,10.23
2023-03-07T07:00:51.967Z,10.90
2023-03-07T07:03:19.500Z,10.77
2023-03-07T07:05:45.986Z,10.83
2023-03-07T07:08:12.546Z,10.43
2023-03-07T07:10:38.754Z,10.80
2023-03-07T07:13:05.182Z,10.47
2023-03-07T07:15:31.506Z,10.67
2023-03-07T07:17:58.431Z,10.97
2023-03-07T07:20:24.631Z,11.20
2023-03-07T07:22:51.012Z,10.73
2023-03-07T07:25:17.329Z,11.40
2023-03-07T07:27:43.525Z,10.90
2023-03-07T07:30:10.884Z,11.47
2023-03-07T07:32:37.265Z,10.50
2023-03-07T07:35:05.365Z,11.00
2023-03-07T07:37:31.635Z,11.10
2023-03-07T07:39:58.405Z,11.30
2023-03-07T07:42:24.799Z,10.07
2023-03-07T07:44:50.979Z,11.07
2023-03-07T07:47:17.258Z,11.10
2023-03-07T07:49:43.439Z,10.30
2023-03-07T07:52:10.398Z,10.77
2023-03-07T07:54:36.582Z,10.23
2023-03-07T07:57:03.013Z,10.60
2023-03-07T07:59:30.978Z,10.30
2023-03-07T08:01:57.228Z,11.90
2023-03-07T08:04:23.420Z,11.53
2023-03-07T08:06:49.528Z,10.17
2023-03-07T08:09:16.460Z,10.47
2023-03-07T08:11:42.677Z,10.00
2023-03-07T08:14:08.957Z,9.93
2023-03-07T08:16:35.465Z,9.67
2023-03-07T08:19:01.817Z,10.60
2023-03-07T08:21:28.300Z,9.77
2023-03-07T08:23:54.868Z,10.03
2023-03-07T08:26:22.718Z,8.83
2023-03-07T08:28:49.048Z,9.07
2023-03-07T08:31:16.653Z,9.57
2023-03-07T08:33:43.462Z,9.87
2023-03-07T08:36:09.791Z,8.73
2023-03-07T08:38:36.058Z,8.60
2023-03-07T08:41:03.480Z,9.90
2023-03-07T08:43:31.164Z,8.63
2023-03-07T08:45:58.072Z,9.57
2023-03-07T08:48:24.664Z,8.50
2023-03-07T08:50:51.724Z,8.73
2023-03-07T08:53:18.834Z,8.67
2023-03-07T08:55:45.079Z,8.83
2023-03-07T08:58:11.273Z,8.80
2023-03-07T09:00:38.302Z,8.70
2023-03-07T09:03:04.781Z,8.37
2023-03-07T09:05:31.365Z,8.50
2023-03-07T09:07:58.003Z,9.53
2023-03-07T09:10:26.230Z,8.33
2023-03-07T09:12:54.381Z,7.83
2023-03-07T09:15:20.798Z,7.77
2023-03-07T09:17:47.644Z,7.93
2023-03-07T09:20:15.468Z,7.03
2023-03-07T09:22:41.723Z,7.23
2023-03-07T09:25:08.754Z,7.80
2023-03-07T09:27:35.248Z,7.27
2023-03-07T09:30:01.592Z,6.97
2023-03-07T09:32:27.856Z,7.77
2023-03-07T09:34:54.649Z,7.97
2023-03-07T09:37:20.872Z,7.87
2023-03-07T09:39:48.654Z,7.73
2023-03-07T09:42:20.458Z,8.07
2023-03-07T09:44:59.113Z,7.87
2023-03-07T09:47:37.894Z,7.87
2023-03-07T09:50:10.999Z,7.73
2023-03-07T09:52:39.298Z,7.33
2023-03-07T09:55:10.868Z,7.40
2023-03-07T09:57:41.344Z,7.57
2023-03-07T10:00:18.394Z,7.40
2023-03-07T10:02:47.961Z,7.27
2023-03-07T10:05:27.002Z,7.77
2023-03-07T10:07:54.359Z,7.87
2023-03-07T10:10:22.812Z,4.50
2023-03-07T10:13:10.907Z,4.07
2023-03-07T10:15:44.687Z,3.97
2023-03-07T10:18:16.850Z,3.03
2023-03-07T10:20:47.766Z,2.57
2023-03-07T10:23:40.868Z,2.30
2023-03-07T10:26:10.145Z,2.17
2023-03-07T10:28:41.179Z,2.07
2023-03-07T10:31:15.518Z,2.40
2023-03-07T10:33:45.198Z,2.20
2023-03-07T10:36:15.560Z,2.20
2023-03-07T10:38:48.993Z,1.93
2023-03-07T10:41:16.586Z,2.60
2023-03-07T10:43:43.516Z,2.13
2023-03-07T10:46:23.706Z,1.73
2023-03-07T10:48:53.128Z,1.60
2023-03-07T10:51:33.642Z,1.50
2023-03-07T10:54:00.048Z,1.70
2023-03-07T10:56:26.251Z,1.70
2023-03-07T10:59:00.577Z,1.40
2023-03-07T11:01:27.944Z,1.50
2023-03-07T11:03:58.808Z,1.93
2023-03-07T11:06:34.645Z,1.60
2023-03-07T11:09:09.600Z,1.50
2023-03-07T11:11:36.151Z,1.57
2023-03-07T11:14:07.220Z,1.67
2023-03-07T11:16:33.671Z,1.70
2023-03-07T11:18:59.907Z,1.87
2023-03-07T11:21:31.465Z,1.53
2023-03-07T11:23:59.600Z,1.50
2023-03-07T11:26:30.428Z,1.10
2023-03-07T11:29:10.971Z,1.10
2023-03-07T11:31:42.459Z,1.40
2023-03-07T11:34:19.381Z,1.10
2023-03-07T11:36:53.807Z,1.30
2023-03-07T11:39:27.313Z,1.70
2023-03-07T11:41:56.074Z,1.57
2023-03-07T11:44:31.365Z,1.50
2023-03-07T11:47:24.463Z,1.50
2023-03-07T11:50:04.887Z,1.20
2023-03-07T11:52:45.343Z,1.60
2023-03-07T11:55:24.321Z,1.90
2023-03-07T11:58:01.839Z,1.60
2023-03-07T12:00:32.377Z,1.47
2023-03-07T12:03:12.245Z,1.90
2023-03-07T12:06:01.500Z,1.80
2023-03-07T12:08:43.756Z,1.60
2023-03-07T12:11:20.843Z,1.70
2023-03-07T12:13:54.010Z,2.30
2023-03-07T12:16:26.725Z,2.23
2023-03-07T12:19:10.787Z,2.00
2023-03-07T12:21:52.092Z,2.37
2023-03-07T12:24:20.934Z,2.30
2023-03-07T12:26:55.610Z,2.07
2023-03-07T12:29:31.968Z,2.10
2023-03-07T12:32:00.017Z,2.47
2023-03-07T12:34:30.795Z,2.70
2023-03-07T12:37:00.757Z,2.90
2023-03-07T12:39:29.644Z,2.90
2023-03-07T12:42:01.443Z,2.90
2023-03-07T12:44:32.369Z,2.70
2023-03-07T12:47:02.935Z,2.57
2023-03-07T12:49:47.824Z,2.47
2023-03-07T12:52:22.464Z,2.67
2023-03-07T12:54:54.835Z,2.80
2023-03-07T12:57:26.836Z,2.40
2023-03-07T12:59:56.814Z,2.20
2023-03-07T13:02:26.990Z,2.47
2023-03-07T13:04:53.601Z,2.43
2023-03-07T13:07:23.973Z,2.40
2023-03-07T13:09:52.243Z,2.20
2023-03-07T13:12:29.150Z,2.53
2023-03-07T13:14:56.644Z,2.50
2023-03-07T13:17:59.846Z,2.27
2023-03-07T13:20:43.138Z,2.60
2023-03-07T13:23:23.242Z,2.97
2023-03-07T13:25:56.148Z,2.97
2023-03-07T13:28:50.389Z,2.90
2023-03-07T13:31:42.212Z,3.50
2023-03-07T13:34:50.422Z,3.33
2023-03-07T13:37:50.155Z,3.07
2023-03-07T13:40:50.327Z,3.60
2023-03-07T13:43:50.100Z,3.03
2023-03-07T13:46:47.076Z,3.10
2023-03-07T13:49:42.049Z,3.07
2023-03-07T13:52:43.313Z,2.57
2023-03-07T13:55:22.932Z,2.80
2023-03-07T13:57:49.618Z,3.10
2023-03-07T14:00:32.769Z,3.10
2023-03-07T14:02:59.758Z,3.30
2023-03-07T14:05:26.008Z,2.90
2023-03-07T14:07:52.608Z,3.20
2023-03-07T14:10:23.440Z,3.20
2023-03-07T14:13:06.058Z,3.30
2023-03-07T14:15:36.560Z,3.10
2023-03-07T14:18:14.898Z,2.70
2023-03-07T14:20:53.482Z,3.20
2023-03-07T14:23:37.178Z,2.50
2023-03-07T14:26:10.314Z,2.67
2023-03-07T14:28:36.542Z,3.23
2023-03-07T14:31:04.801Z,2.73
2023-03-07T14:33:32.741Z,2.70
2023-03-07T14:35:59.336Z,3.37
2023-03-07T14:38:26.120Z,3.03
2023-03-07T14:41:04.017Z,3.07
2023-03-07T14:43:43.067Z,2.93
2023-03-07T14:46:16.001Z,2.87
2023-03-07T14:48:54.878Z,2.93
2023-03-07T14:51:23.706Z,3.27
2023-03-07T14:53:50.075Z,3.03
2023-03-07T14:56:21.218Z,3.00
2023-03-07T14:58:49.950Z,3.37
2023-03-07T15:01:18.792Z,3.17
2023-03-07T15:03:47.021Z,3.40
2023-03-07T15:06:15.948Z,2.97
2023-03-07T15:08:42.461Z,3.10
2023-03-07T15:11:12.772Z,3.30
2023-03-07T15:13:45.122Z,3.17
2023-03-07T15:16:13.503Z,3.20
2023-03-07T15:18:41.588Z,2.90
2023-03-07T15:21:14.600Z,3.30
2023-03-07T15:23:40.824Z,3.43
2023-03-07T15:26:10.086Z,3.77
2023-03-07T15:28:39.539Z,3.90
2023-03-07T15:31:07.821Z,4.07
2023-03-07T15:33:34.650Z,3.93
2023-03-07T15:36:20.410Z,4.17
2023-03-07T15:38:48.326Z,4.03
2023-03-07T15:41:29.215Z,4.60
2023-03-07T15:44:06.308Z,5.03
2023-03-07T15:46:32.647Z,5.70
2023-03-07T15:48:58.945Z,5.60
2023-03-07T15:51:34.082Z,5.90
2023-03-07T15:54:02.660Z,6.60
2023-03-07T15:56:33.124Z,6.40
2023-03-07T15:59:02.700Z,5.80
2023-03-07T16:01:29.079Z,5.17
2023-03-07T16:03:56.318Z,4.57
2023-03-07T16:06:32.292Z,4.73
2023-03-07T16:08:58.466Z,4.73
2023-03-07T16:11:24.607Z,4.80
2023-03-07T16:13:50.898Z,4.23
2023-03-07T16:16:21.111Z,4.97
2023-03-07T16:18:47.793Z,4.63
2023-03-07T16:21:14.927Z,4.90
2023-03-07T16:23:42.148Z,5.33
2023-03-07T16:26:12.712Z,5.10
2023-03-07T16:28:39.147Z,5.03
2023-03-07T16:31:10.204Z,5.63
2023-03-07T16:33:36.493Z,5.30
2023-03-07T16:36:02.843Z,5.57
2023-03-07T16:38:29.059Z,5.90
2023-03-07T16:40:56.690Z,6.00
2023-03-07T16:43:34.351Z,6.03
2023-03-07T16:46:01.888Z,5.07
2023-03-07T16:48:28.110Z,5.90
2023-03-07T16:50:54.330Z,5.70
2023-03-07T16:53:20.467Z,6.70
2023-03-07T16:55:46.867Z,6.13
2023-03-07T16:58:19.966Z,7.13
2023-03-07T17:00:46.265Z,7.47
2023-03-07T17:03:12.519Z,7.50
2023-03-07T17:05:38.771Z,7.07
2023-03-07T17:08:06.613Z,8.83
2023-03-07T17:10:32.877Z,8.43
2023-03-07T17:13:00.101Z,8.07
2023-03-07T17:15:29.866Z,9.07
2023-03-07T17:17:56.468Z,9.03
2023-03-07T17:20:22.655Z,9.37
2023-03-07T17:22:49.620Z,8.97
2023-03-07T17:25:16.256Z,10.93
2023-03-07T17:27:45.395Z,10.27
2023-03-07T17:30:18.623Z,10.53
2023-03-07T17:32:46.059Z,11.00
2023-03-07T17:35:13.636Z,9.57
2023-03-07T17:37:39.831Z,9.57
2023-03-07T17:40:09.271Z,10.53
2023-03-07T17:42:35.637Z,9.47
2023-03-07T17:45:01.844Z,11.20
2023-03-07T17:47:27.965Z,8.90
2023-03-07T17:49:54.922Z,9.70
2023-03-07T17:52:21.140Z,10.13
2023-03-07T17:54:48.001Z,9.00
2023-03-07T17:57:14.247Z,8.67
2023-03-07T17:59:40.724Z,9.27
2023-03-07T18:02:08.894Z,9.23
2023-03-07T18:04:35.137Z,9.43
2023-03-07T18:07:01.941Z,8.93
2023-03-07T18:09:28.056Z,9.00
2023-03-07T18:11:54.295Z,8.63
2023-03-07T18:14:20.499Z,9.47
2023-03-07T18:16:46.775Z,9.53
2023-03-07T18:19:25.413Z,9.50
2023-03-07T18:21:52.376Z,9.87
2023-03-07T18:24:20.985Z,9.33
2023-03-07T18:26:49.096Z,9.47
2023-03-07T18:29:15.351Z,10.33
2023-03-07T18:31:41.706Z,10.40
2023-03-07T18:34:08.466Z,10.00
2023-03-07T18:36:34.806Z,9.83
2023-03-07T18:39:01.062Z,10.13
2023-03-07T18:41:28.297Z,10.20
2023-03-07T18:43:55.682Z,10.00
2023-03-07T18:46:23.577Z,11.10
2023-03-07T18:48:50.265Z,10.90
2023-03-07T18:51:18.252Z,9.77
2023-03-07T18:53:44.699Z,10.13
2023-03-07T18:56:12.431Z,10.17
2023-03-07T18:58:39.732Z,10.13
2023-03-07T19:01:10.805Z,9.93
2023-03-07T19:03:37.015Z,9.63
2023-03-07T19:06:03.362Z,9.83
2023-03-07T19:08:29.789Z,9.47
2023-03-07T19:10:56.031Z,9.30
2023-03-07T19:13:22.311Z,9.03
2023-03-07T19:15:49.185Z,7.63
2023-03-07T19:18:15.411Z,7.87
2023-03-07T19:20:41.624Z,7.90
2023-03-07T19:23:07.832Z,6.80
2023-03-07T19:25:34.444Z,7.20
2023-03-07T19:28:00.646Z,7.20
2023-03-07T19:30:28.172Z,7.33
2023-03-07T19:32:54.977Z,7.83
2023-03-07T19:35:21.966Z,8.33
2023-03-07T19:37:48.609Z,9.47
2023-03-07T19:40:15.259Z,10.50
2023-03-07T19:42:41.435Z,10.43
2023-03-07T19:45:08.554Z,9.97
2023-03-07T19:47:35.010Z,8.87
2023-03-07T19:50:02.239Z,8.63
2023-03-07T19:52:28.798Z,8.73
2023-03-07T19:54:55.447Z,8.90
2023-03-07T19:57:21.895Z,8.43
2023-03-07T19:59:51.354Z,9.13
2023-03-07T20:02:19.213Z,8.00
2023-03-07T20:04:45.530Z,7.47
2023-03-07T20:07:12.387Z,7.63
2023-03-07T20:09:38.589Z,8.30
2023-03-07T20:12:05.444Z,7.37
2023-03-07T20:14:31.639Z,8.00
2023-03-07T20:16:57.783Z,6.63
2023-03-07T20:19:24.008Z,6.00
2023-03-07T20:21:50.370Z,6.33
2023-03-07T20:24:17.741Z,6.60
2023-03-07T20:26:46.175Z,6.63
2023-03-07T20:29:13.399Z,6.87
2023-03-07T20:31:39.635Z,7.30
2023-03-07T20:34:06.381Z,7.20
2023-03-07T20:36:34.628Z,6.37
2023-03-07T20:39:02.864Z,6.30
2023-03-07T20:41:31.190Z,5.20
2023-03-07T20:43:59.202Z,6.60
2023-03-07T20:46:25.501Z,7.17
2023-03-07T20:48:54.020Z,7.27
2023-03-07T20:51:22.520Z,7.40
2023-03-07T20:53:50.493Z,7.87
2023-03-07T20:56:17.787Z,7.70
2023-03-07T20:58:45.268Z,7.17
2023-03-07T21:01:11.723Z,7.33
2023-03-07T21:03:38.521Z,8.17
2023-03-07T21:06:05.664Z,7.10
2023-03-07T21:08:33.524Z,7.30
2023-03-07T21:11:00.425Z,6.43
2023-03-07T21:13:27.060Z,7.23
2023-03-07T21:15:54.596Z,6.37
2023-03-07T21:18:21.089Z,6.70
2023-03-07T21:20:47.304Z,6.47
2023-03-07T21:23:13.483Z,6.27
2023-03-07T21:25:39.753Z,6.63
2023-03-07T21:28:06.515Z,6.20
2023-03-07T21:30:33.234Z,6.00
2023-03-07T21:33:00.116Z,6.23
2023-03-07T21:35:26.444Z,5.50
2023-03-07T21:37:52.723Z,5.53
2023-03-07T21:40:19.500Z,4.87
2023-03-07T21:42:45.823Z,4.93
2023-03-07T21:45:16.046Z,5.13
2023-03-07T21:47:42.963Z,5.20
2023-03-07T21:50:11.693Z,5.10
2023-03-07T21:52:38.031Z,4.90
2023-03-07T21:55:04.886Z,4.67
2023-03-07T21:57:31.211Z,5.07
2023-03-07T21:59:57.342Z,5.27
2023-03-07T22:02:23.687Z,5.50
2023-03-07T22:04:49.891Z,5.30
2023-03-07T22:07:17.796Z,5.07
2023-03-07T22:09:43.998Z,5.20
2023-03-07T22:12:10.214Z,4.63
2023-03-07T22:14:36.405Z,4.50
2023-03-07T22:17:02.611Z,3.90
2023-03-07T22:19:28.836Z,4.43
2023-03-07T22:21:54.980Z,4.33
2023-03-07T22:24:21.853Z,4.57
2023-03-07T22:26:48.132Z,4.00
2023-03-07T22:29:16.643Z,5.17
2023-03-07T22:31:42.817Z,3.93
2023-03-07T22:34:09.058Z,4.37
2023-03-07T22:36:35.297Z,3.70
2023-03-07T22:39:01.611Z,4.37
2023-03-07T22:41:28.672Z,4.07
2023-03-07T22:43:55.100Z,4.20
2023-03-07T22:46:21.524Z,4.40
2023-03-07T22:48:51.262Z,3.77
2023-03-07T22:51:17.524Z,4.37
2023-03-07T22:53:43.883Z,4.27
2023-03-07T22:56:14.200Z,3.77
2023-03-07T22:58:41.330Z,5.17
2023-03-07T23:01:10.831Z,4.13
2023-03-07T23:03:37.052Z,4.43
2023-03-07T23:06:03.572Z,3.97
2023-03-07T23:08:29.811Z,4.50
2023-03-07T23:11:00.123Z,4.67
2023-03-07T23:13:26.404Z,4.77
2023-03-07T23:15:53.366Z,4.97
2023-03-07T23:18:19.640Z,4.80
2023-03-07T23:20:45.839Z,4.70
2023-03-07T23:23:14.530Z,4.40
2023-03-07T23:25:41.493Z,4.47
2023-03-07T23:28:07.870Z,4.80
2023-03-07T23:30:35.695Z,4.73
2023-03-07T23:33:02.591Z,4.17
2023-03-07T23:35:28.816Z,4.47
2023-03-07T23:37:55.033Z,4.30
2023-03-07T23:40:21.476Z,4.40
2023-03-07T23:42:47.965Z,4.53
2023-03-07T23:45:14.295Z,4.53
2023-03-07T23:47:40.458Z,4.90
2023-03-07T23:50:08.593Z,4.97
2023-03-07T23:52:34.872Z,5.53
2023-03-07T23:55:01.108Z,6.47
2023-03-07T23:57:27.259Z,6.13
2023-03-07T23:59:53.520Z,6.60
